Elmira, NY

1:27 PM EST on December 08, 2016 (GMT -0500)
Southside of Elmira NY | | Change Station

Elev 876 ft 42.08 °N, 76.82 °W | Updated 59 seconds ago

Overcast
Overcast
39.0 °F
Feels Like 39 °F
N
2.5
Wind Variable Wind from ESE
Gusts 2.5 mph

Today
High -- | Low -- °F
--% Chance of Precip.
Yesterday
High -- | Low -- °F
Precip. -- in
Pressure 29.90 in
Visibility 10.0 miles
Clouds Mostly Cloudy 4700 ft
Overcast 5500 ft
Windchill 39 °F
Dew Point 22 °F
Humidity 50%
Rainfall 0.00 in
Snow Depth Not available.
7:23 AM 4:35 PM
Waxing Gibbous, 65% visible
METAR KELM 081753Z 26015G23KT 10SM BKN047 OVC055 03/M07 A2987 RMK AO2 SLP124 T00331072 10039 21022 56016
Pressure 29.90 in
Visibility 10.0 miles
Clouds Mostly Cloudy 4700 ft
Overcast 5500 ft
Windchill 39 °F
Dew Point 22 °F
Humidity 50%
Rainfall 0.00 in
Snow Depth Not available.
7:23 AM 4:35 PM
Waxing Gibbous, 65% visible
METAR KELM 081753Z 26015G23KT 10SM BKN047 OVC055 03/M07 A2987 RMK AO2 SLP124 T00331072 10039 21022 56016

10-Day Weather Forecast

Almanac

Astronomy

Dec. 08, 2016 Rise Set
Actual Time
Civil Twilight
Nautical Twilight
Astronomical Twilight
Moon
Length of Visible Light
Length of Day
Tomorrow will be .
, % of the Moon is Illuminated

Today's Extremes

State Highs State Lows

Community

WunderPhotos

Upload Photos

1,956,277 photos uploaded!

WunderBlog® & News

Nearby

Air Quality

  Air Quality AQ Index Pollutant
Not available.

Snow Depth

Station Depth Elevation

Earthquake Activity

City Distance Mag. Time & Date
Minimum magnitude displayed is 2.5.

Coastal Water Temperatures

Place Temperature

Stations

Nearby Weather Stations

Station Location Temp. Windchill Dew Point Humidity Wind Precip. Elev Updated Type
                   

Watches & Warnings

There are currently no watches in effect.